createdAt,value
2018-11-20T00:02:35.860Z,88.49
2018-11-20T00:05:23.867Z,88.26
2018-11-20T00:08:18.559Z,88.74
2018-11-20T00:11:16.591Z,88.84
2018-11-20T00:13:59.521Z,88.60
2018-11-20T00:16:38.477Z,88.46
2018-11-20T00:19:32.115Z,88.47
2018-11-20T00:22:29.836Z,87.98
2018-11-20T00:25:17.484Z,88.37
2018-11-20T00:28:06.820Z,88.10
2018-11-20T00:31:07.925Z,88.10
2018-11-20T00:34:03.984Z,87.99
2018-11-20T00:37:06.266Z,87.72
2018-11-20T00:40:04.503Z,88.39
2018-11-20T00:42:51.933Z,88.13
2018-11-20T00:45:52.469Z,88.44
2018-11-20T00:48:39.834Z,88.25
2018-11-20T00:51:28.714Z,88.06
2018-11-20T00:54:29.677Z,87.90
2018-11-20T00:57:24.421Z,88.27
2018-11-20T01:00:15.067Z,87.96
2018-11-20T01:03:02.853Z,88.24
2018-11-20T01:06:02.364Z,88.22
2018-11-20T01:08:40.404Z,87.98
2018-11-20T01:11:38.490Z,87.87
2018-11-20T01:14:33.470Z,87.61
2018-11-20T01:17:28.570Z,87.60
2018-11-20T01:20:11.529Z,87.77
2018-11-20T01:22:58.972Z,87.84
2018-11-20T01:25:47.872Z,87.70
2018-11-20T01:28:40.103Z,87.60
2018-11-20T01:31:29.917Z,87.32
2018-11-20T01:34:27.950Z,87.41
2018-11-20T01:37:31.747Z,87.21
2018-11-20T01:40:27.930Z,87.11
2018-11-20T01:43:15.812Z,87.33
2018-11-20T01:46:03.194Z,86.97
2018-11-20T01:48:47.108Z,86.77
2018-11-20T01:51:42.232Z,87.00
2018-11-20T01:54:35.945Z,86.48
2018-11-20T01:57:13.838Z,86.27
2018-11-20T02:00:15.483Z,86.19
2018-11-20T02:02:54.604Z,86.18
2018-11-20T02:05:31.307Z,85.97
2018-11-20T02:08:35.319Z,86.14
2018-11-20T02:11:23.261Z,85.56
2018-11-20T02:14:19.652Z,85.61
2018-11-20T02:17:09.710Z,85.09
2018-11-20T02:19:57.120Z,85.62
2018-11-20T02:22:44.595Z,85.36
2018-11-20T02:25:39.531Z,85.06
2018-11-20T02:28:28.405Z,85.01
2018-11-20T02:31:26.736Z,84.74
2018-11-20T02:34:18.535Z,84.55
2018-11-20T02:37:19.135Z,84.37
2018-11-20T02:40:10.816Z,84.38
2018-11-20T02:43:02.682Z,84.47
2018-11-20T02:45:57.385Z,84.38
2018-11-20T02:48:48.237Z,84.03
2018-11-20T02:51:39.735Z,83.66
2018-11-20T02:54:44.259Z,83.39
2018-11-20T02:57:33.123Z,83.45
2018-11-20T03:00:20.525Z,83.18
2018-11-20T03:03:24.234Z,83.11
2018-11-20T03:06:15.884Z,83.27
2018-11-20T03:09:11.088Z,82.92
2018-11-20T03:12:15.160Z,82.93
2018-11-20T03:15:02.942Z,82.80
2018-11-20T03:17:50.457Z,82.53
2018-11-20T03:20:31.225Z,82.54
2018-11-20T03:23:13.350Z,81.87
2018-11-20T03:26:11.593Z,81.22
2018-11-20T03:29:11.969Z,80.08
2018-11-20T03:32:10.229Z,80.15
2018-11-20T03:35:04.704Z,79.45
2018-11-20T03:37:56.565Z,78.80
2018-11-20T03:40:43.807Z,78.60
2018-11-20T03:43:32.689Z,78.19
2018-11-20T03:46:29.563Z,77.48
2018-11-20T03:49:30.271Z,77.38
2018-11-20T03:52:12.395Z,77.59
2018-11-20T03:54:48.289Z,77.39
2018-11-20T03:57:35.926Z,77.26
2018-11-20T04:00:15.671Z,77.27
2018-11-20T04:03:07.372Z,76.97
2018-11-20T04:06:08.202Z,76.99
2018-11-20T04:08:55.614Z,76.34
2018-11-20T04:11:43.301Z,76.52
2018-11-20T04:14:24.770Z,76.76
2018-11-20T04:17:07.056Z,76.68
2018-11-20T04:19:52.449Z,76.41
2018-11-20T04:22:50.138Z,76.71
2018-11-20T04:25:45.262Z,76.78
2018-11-20T04:28:42.923Z,76.56
2018-11-20T04:32:13.583Z,76.54
2018-11-20T04:35:00.158Z,76.31
2018-11-20T04:37:47.690Z,76.90
2018-11-20T04:40:35.467Z,76.76
2018-11-20T04:43:24.662Z,76.59
2018-11-20T04:46:28.616Z,77.11
2018-11-20T04:49:11.911Z,76.18
2018-11-20T04:52:09.868Z,76.41
2018-11-20T04:54:53.927Z,76.75
2018-11-20T04:57:42.902Z,76.32
2018-11-20T05:00:43.980Z,76.59
2018-11-20T05:03:40.309Z,77.03
2018-11-20T05:06:30.453Z,76.67
2018-11-20T05:09:19.351Z,76.68
2018-11-20T05:11:57.746Z,76.62
2018-11-20T05:14:37.425Z,76.08
2018-11-20T05:17:24.713Z,76.35
2018-11-20T05:20:13.574Z,76.04
2018-11-20T05:23:05.357Z,76.10
2018-11-20T05:25:54.279Z,76.18
2018-11-20T05:29:01.324Z,76.34
2018-11-20T05:31:50.193Z,76.08
2018-11-20T05:34:42.538Z,76.23
2018-11-20T05:37:29.071Z,76.05
2018-11-20T05:40:27.010Z,76.08
2018-11-20T05:43:24.541Z,76.35
2018-11-20T05:46:11.828Z,76.44
2018-11-20T05:49:03.570Z,76.65
2018-11-20T05:51:52.019Z,76.40
2018-11-20T05:54:37.151Z,76.52
2018-11-20T05:57:24.698Z,76.59
2018-11-20T06:00:19.439Z,76.92
2018-11-20T06:03:06.703Z,77.06
2018-11-20T06:06:02.137Z,77.36
2018-11-20T06:08:59.777Z,77.12
2018-11-20T06:11:51.349Z,77.17
2018-11-20T06:14:58.388Z,77.23
2018-11-20T06:17:56.511Z,77.52
2018-11-20T06:20:51.169Z,77.14
2018-11-20T06:23:55.255Z,77.65
2018-11-20T06:26:37.654Z,77.20
2018-11-20T06:29:38.662Z,77.14
2018-11-20T06:32:27.490Z,78.18
2018-11-20T06:35:09.549Z,77.72
2018-11-20T06:38:07.265Z,77.66
2018-11-20T06:40:58.937Z,77.46
2018-11-20T06:43:40.430Z,78.01
2018-11-20T06:46:20.351Z,77.45
2018-11-20T06:49:07.918Z,77.65
2018-11-20T06:51:45.593Z,77.33
2018-11-20T06:54:46.405Z,77.74
2018-11-20T06:57:27.207Z,77.68
2018-11-20T07:00:14.495Z,77.68
2018-11-20T07:03:06.175Z,77.84
2018-11-20T07:06:07.252Z,77.82
2018-11-20T07:09:01.605Z,77.82
2018-11-20T07:11:53.500Z,78.37
2018-11-20T07:14:43.938Z,78.24
2018-11-20T07:17:34.517Z,78.37
2018-11-20T07:20:22.430Z,77.80
2018-11-20T07:23:50.109Z,78.04
2018-11-20T07:26:41.005Z,77.92
2018-11-20T07:29:27.850Z,78.56
2018-11-20T07:32:14.418Z,78.00
2018-11-20T07:35:08.500Z,77.92
2018-11-20T07:38:05.533Z,78.40
2018-11-20T07:40:42.074Z,78.16
2018-11-20T07:43:39.733Z,78.43
2018-11-20T07:46:27.630Z,78.61
2018-11-20T07:49:23.596Z,78.56
2018-11-20T07:52:17.213Z,78.61
2018-11-20T07:55:05.297Z,78.69
2018-11-20T07:57:58.681Z,78.48
2018-11-20T08:00:46.971Z,78.25
2018-11-20T08:03:33.737Z,78.82
2018-11-20T08:06:20.742Z,78.99
2018-11-20T08:08:56.830Z,79.18
2018-11-20T08:11:43.874Z,78.98
2018-11-20T08:14:21.324Z,78.70
2018-11-20T08:17:08.325Z,79.34
2018-11-20T08:20:03.549Z,79.11
2018-11-20T08:23:00.834Z,79.09
2018-11-20T08:26:04.229Z,79.17
2018-11-20T08:29:00.996Z,79.41
2018-11-20T08:31:49.079Z,79.60
2018-11-20T08:34:40.659Z,79.74
2018-11-20T08:37:34.296Z,80.09
2018-11-20T08:40:28.120Z,80.01
2018-11-20T08:43:12.633Z,79.90
2018-11-20T08:46:18.638Z,79.90
2018-11-20T08:49:05.353Z,79.51
2018-11-20T08:51:52.162Z,80.33
2018-11-20T08:54:33.697Z,80.33
2018-11-20T08:57:24.505Z,80.23
2018-11-20T09:00:11.257Z,80.66
2018-11-20T09:03:00.765Z,80.59
2018-11-20T09:05:47.888Z,80.34
2018-11-20T09:08:35.955Z,80.74
2018-11-20T09:11:22.772Z,80.67
2018-11-20T09:14:09.410Z,80.64
2018-11-20T09:16:56.288Z,80.32
2018-11-20T09:19:43.303Z,80.55
2018-11-20T09:22:34.444Z,80.92
2018-11-20T09:25:17.757Z,81.54
2018-11-20T09:28:08.934Z,80.95
2018-11-20T09:31:08.879Z,81.14
2018-11-20T09:33:56.952Z,80.83
2018-11-20T09:36:43.611Z,81.00
2018-11-20T09:39:30.317Z,81.70
2018-11-20T09:42:22.001Z,81.55
2018-11-20T09:45:41.681Z,81.19
2018-11-20T09:48:39.054Z,80.94
2018-11-20T09:51:38.352Z,81.14
2018-11-20T09:54:31.677Z,81.05
2018-11-20T09:57:22.744Z,80.88
2018-11-20T10:00:09.432Z,80.51
2018-11-20T10:02:57.501Z,81.10
2018-11-20T10:05:36.374Z,80.82
2018-11-20T10:08:24.544Z,81.15
2018-11-20T10:11:11.346Z,80.85
2018-11-20T10:14:08.799Z,80.60
2018-11-20T10:16:56.827Z,80.89
2018-11-20T10:19:47.665Z,81.16
2018-11-20T10:22:34.410Z,81.52
2018-11-20T10:25:12.912Z,81.41
2018-11-20T10:27:59.821Z,81.16
2018-11-20T10:30:46.819Z,81.44
2018-11-20T10:33:50.165Z,81.61
2018-11-20T10:36:40.839Z,81.37
2018-11-20T10:39:35.622Z,81.30
2018-11-20T10:42:23.675Z,81.62
2018-11-20T10:45:11.739Z,81.79
2018-11-20T10:48:02.495Z,81.57
2018-11-20T10:50:49.554Z,82.08
2018-11-20T10:53:36.564Z,82.17
2018-11-20T10:56:16.827Z,82.41
2018-11-20T10:59:03.970Z,82.06
2018-11-20T11:01:50.403Z,82.30
2018-11-20T11:04:37.411Z,82.17
2018-11-20T11:07:24.520Z,81.89
2018-11-20T11:09:56.958Z,81.88
2018-11-20T11:12:53.739Z,81.85
2018-11-20T11:15:44.557Z,82.11
2018-11-20T11:18:32.663Z,81.17
2018-11-20T11:21:15.751Z,81.36
2018-11-20T11:24:13.139Z,81.24
2018-11-20T11:27:03.998Z,80.94
2018-11-20T11:29:50.667Z,80.92
2018-11-20T11:32:37.436Z,80.73
2018-11-20T11:35:24.612Z,80.65
2018-11-20T11:38:21.541Z,80.87
2018-11-20T11:41:00.255Z,80.79
2018-11-20T11:43:53.999Z,80.79
2018-11-20T11:46:35.626Z,80.42
2018-11-20T11:49:35.502Z,80.38
2018-11-20T11:52:25.365Z,80.67
2018-11-20T11:55:09.324Z,80.41
2018-11-20T11:58:04.916Z,80.56
2018-11-20T12:00:58.723Z,80.47
2018-11-20T12:03:52.328Z,80.50
2018-11-20T12:06:49.663Z,79.65
2018-11-20T12:09:36.598Z,80.46
2018-11-20T12:12:23.345Z,80.63
2018-11-20T12:15:26.819Z,80.40
2018-11-20T12:18:14.867Z,80.73
2018-11-20T12:21:01.327Z,80.28
2018-11-20T12:23:45.795Z,80.33
2018-11-20T12:26:36.919Z,80.43
2018-11-20T12:29:34.692Z,80.49
2018-11-20T12:32:24.521Z,80.17
2018-11-20T12:35:09.541Z,80.27
2018-11-20T12:37:59.332Z,80.15
2018-11-20T12:41:00.850Z,80.08
2018-11-20T12:43:51.873Z,80.17
2018-11-20T12:46:30.170Z,79.79
2018-11-20T12:49:18.744Z,80.06
2018-11-20T12:52:14.033Z,80.33
2018-11-20T12:55:03.066Z,80.86
2018-11-20T12:57:54.299Z,80.28
2018-11-20T13:00:42.024Z,80.70
2018-11-20T13:03:45.502Z,81.10
2018-11-20T13:06:39.560Z,80.71
2018-11-20T13:09:27.202Z,80.84
2018-11-20T13:12:13.903Z,80.06
2018-11-20T13:15:05.030Z,80.22
2018-11-20T13:17:51.764Z,79.97
2018-11-20T13:20:38.704Z,80.26
2018-11-20T13:23:42.068Z,80.50
2018-11-20T13:26:21.012Z,79.96
2018-11-20T13:29:27.033Z,79.73
2018-11-20T13:32:13.526Z,80.00
2018-11-20T13:35:07.860Z,80.27
2018-11-20T13:37:55.934Z,79.83
2018-11-20T13:41:19.481Z,79.71
2018-11-20T13:44:16.658Z,80.01
2018-11-20T13:47:07.520Z,79.93
2018-11-20T13:49:54.227Z,80.08
2018-11-20T13:52:45.324Z,80.38
2018-11-20T13:55:27.294Z,79.70
2018-11-20T13:58:29.246Z,79.60
2018-11-20T14:01:12.561Z,79.65
2018-11-20T14:03:54.963Z,79.77
2018-11-20T14:06:41.643Z,79.86
2018-11-20T14:09:28.330Z,80.15
2018-11-20T14:12:22.558Z,79.88
2018-11-20T14:15:09.870Z,79.88
2018-11-20T14:18:13.290Z,79.97
2018-11-20T14:21:00.169Z,80.00
2018-11-20T14:23:47.237Z,79.95
2018-11-20T14:26:40.001Z,80.03
2018-11-20T14:29:19.106Z,80.17
2018-11-20T14:32:00.276Z,79.75
2018-11-20T14:35:00.459Z,79.66
2018-11-20T14:38:00.129Z,79.44
2018-11-20T14:40:46.951Z,79.27
2018-11-20T14:43:46.548Z,79.97
2018-11-20T14:46:46.707Z,79.99
2018-11-20T14:49:33.408Z,79.85
2018-11-20T14:52:20.280Z,80.09
2018-11-20T14:55:11.110Z,80.01
2018-11-20T14:58:17.345Z,80.32
2018-11-20T15:01:04.680Z,80.32
2018-11-20T15:03:57.940Z,80.56
2018-11-20T15:06:44.897Z,80.52
2018-11-20T15:09:35.939Z,80.42
2018-11-20T15:12:22.593Z,80.67
2018-11-20T15:15:16.400Z,80.72
2018-11-20T15:18:22.849Z,80.24
2018-11-20T15:21:09.673Z,80.14
2018-11-20T15:24:09.558Z,80.06
2018-11-20T15:27:06.699Z,80.09
2018-11-20T15:29:53.890Z,80.19
2018-11-20T15:32:40.464Z,80.30
2018-11-20T15:35:34.547Z,79.74
2018-11-20T15:38:21.467Z,80.04
2018-11-20T15:41:14.214Z,80.00
2018-11-20T15:44:05.022Z,79.77
2018-11-20T15:46:53.048Z,80.05
2018-11-20T15:49:35.490Z,80.21
2018-11-20T15:52:12.745Z,80.35
2018-11-20T15:55:09.562Z,79.61
2018-11-20T15:57:56.484Z,79.89
2018-11-20T16:00:44.549Z,80.04
2018-11-20T16:03:31.296Z,80.50
2018-11-20T16:06:22.269Z,80.58
2018-11-20T16:09:28.695Z,80.54
2018-11-20T16:12:25.731Z,80.51
2018-11-20T16:15:26.031Z,80.65
2018-11-20T16:18:23.053Z,80.71
2018-11-20T16:21:14.333Z,81.01
2018-11-20T16:24:09.495Z,81.09
2018-11-20T16:26:56.318Z,81.29
2018-11-20T16:29:43.153Z,81.41
2018-11-20T16:32:29.750Z,81.36
2018-11-20T16:35:06.572Z,81.11
2018-11-20T16:38:03.780Z,81.18
2018-11-20T16:40:59.999Z,81.62
2018-11-20T16:43:46.841Z,81.21
2018-11-20T16:46:40.290Z,81.41
2018-11-20T16:49:26.806Z,81.69
2018-11-20T16:52:14.857Z,81.17
2018-11-20T16:55:17.934Z,81.61
2018-11-20T16:58:20.959Z,81.42
2018-11-20T17:01:11.802Z,81.52
2018-11-20T17:04:02.626Z,81.34
2018-11-20T17:06:44.502Z,81.80
2018-11-20T17:09:38.404Z,81.64
2018-11-20T17:12:16.919Z,81.85
2018-11-20T17:15:03.255Z,81.81
2018-11-20T17:17:53.026Z,81.93
2018-11-20T17:20:39.691Z,82.03
2018-11-20T17:23:20.819Z,82.11
2018-11-20T17:26:14.667Z,82.22
2018-11-20T17:29:09.125Z,81.91
2018-11-20T17:31:55.594Z,81.61
2018-11-20T17:34:42.362Z,81.45
2018-11-20T17:37:30.461Z,80.79
2018-11-20T17:40:20.918Z,80.56
2018-11-20T17:43:05.163Z,80.13
2018-11-20T17:45:52.033Z,79.97
2018-11-20T17:48:48.982Z,79.91
2018-11-20T17:51:40.252Z,79.95
2018-11-20T17:54:27.038Z,79.91
2018-11-20T17:57:14.140Z,80.04
2018-11-20T18:00:01.007Z,80.08
2018-11-20T18:02:47.879Z,79.60
2018-11-20T18:05:35.963Z,79.98
2018-11-20T18:08:17.707Z,79.68
2018-11-20T18:11:01.893Z,79.69
2018-11-20T18:13:49.996Z,79.54
2018-11-20T18:16:26.724Z,80.00
2018-11-20T18:19:17.470Z,80.25
2018-11-20T18:22:08.336Z,79.82
2018-11-20T18:24:56.393Z,79.89
2018-11-20T18:27:53.482Z,79.99
2018-11-20T18:30:44.408Z,79.88
2018-11-20T18:33:38.224Z,79.13
2018-11-20T18:36:41.351Z,79.19
2018-11-20T18:39:32.492Z,79.16
2018-11-20T18:42:29.637Z,79.02
2018-11-20T18:45:32.935Z,78.94
2018-11-20T18:48:20.037Z,78.36
2018-11-20T18:51:06.669Z,78.46
2018-11-20T18:53:55.989Z,78.10
2018-11-20T18:56:50.072Z,78.48
2018-11-20T18:59:38.580Z,78.06
2018-11-20T19:02:23.214Z,78.22
2018-11-20T19:05:04.249Z,78.18
2018-11-20T19:08:01.332Z,77.96
2018-11-20T19:10:52.448Z,77.73
2018-11-20T19:13:52.840Z,78.08
2018-11-20T19:16:39.549Z,78.12
2018-11-20T19:19:36.781Z,77.96
2018-11-20T19:22:26.872Z,78.14
2018-11-20T19:25:11.578Z,77.92
2018-11-20T19:27:58.402Z,77.72
2018-11-20T19:30:45.434Z,77.73
2018-11-20T19:33:25.562Z,77.35
2018-11-20T19:36:12.533Z,78.13
2018-11-20T19:39:03.574Z,78.04
2018-11-20T19:41:51.643Z,77.74
2018-11-20T19:44:42.733Z,77.41
2018-11-20T19:47:22.602Z,77.76
2018-11-20T19:50:02.176Z,77.91
2018-11-20T19:53:02.991Z,77.44
2018-11-20T19:55:50.872Z,77.49
2018-11-20T19:58:42.142Z,77.52
2018-11-20T20:01:42.483Z,77.99
2018-11-20T20:04:39.428Z,77.62
2018-11-20T20:07:36.822Z,77.35
2018-11-20T20:10:21.513Z,77.64
2018-11-20T20:13:23.811Z,77.31
2018-11-20T20:16:19.088Z,77.81
2018-11-20T20:19:25.317Z,77.65
2018-11-20T20:22:11.962Z,77.97
2018-11-20T20:24:59.996Z,78.19
2018-11-20T20:28:06.583Z,77.99
2018-11-20T20:30:53.007Z,77.55
2018-11-20T20:33:41.151Z,77.60
2018-11-20T20:36:25.435Z,77.75
2018-11-20T20:39:12.325Z,77.93
2018-11-20T20:41:55.059Z,77.77
2018-11-20T20:44:43.104Z,77.84
2018-11-20T20:47:30.075Z,77.61
2018-11-20T20:50:26.979Z,77.47
2018-11-20T20:53:27.479Z,78.42
2018-11-20T20:56:14.648Z,77.72
2018-11-20T20:59:06.300Z,78.27
2018-11-20T21:01:58.003Z,78.48
2018-11-20T21:04:34.045Z,78.33
2018-11-20T21:07:31.290Z,78.17
2018-11-20T21:10:17.929Z,78.61
2018-11-20T21:12:57.971Z,78.37
2018-11-20T21:15:39.943Z,78.23
2018-11-20T21:18:36.616Z,78.89
2018-11-20T21:21:23.487Z,78.60
2018-11-20T21:24:10.179Z,78.19
2018-11-20T21:26:57.166Z,78.41
2018-11-20T21:29:44.267Z,78.37
2018-11-20T21:32:32.880Z,78.25
2018-11-20T21:35:27.916Z,78.49
2018-11-20T21:38:16.258Z,78.32
2018-11-20T21:41:03.767Z,78.16
2018-11-20T21:43:50.451Z,78.80
2018-11-20T21:46:35.411Z,78.38
2018-11-20T21:49:22.421Z,78.18
2018-11-20T21:52:09.526Z,78.45
2018-11-20T21:54:49.169Z,78.37
2018-11-20T21:57:43.311Z,78.71
2018-11-20T22:01:08.642Z,78.07
2018-11-20T22:04:08.776Z,78.59
2018-11-20T22:06:58.070Z,78.18
2018-11-20T22:09:51.747Z,78.10
2018-11-20T22:12:45.907Z,78.25
2018-11-20T22:15:32.877Z,78.72
2018-11-20T22:18:30.115Z,78.99
2018-11-20T22:21:25.135Z,78.26
2018-11-20T22:24:19.063Z,78.97
2018-11-20T22:27:05.761Z,78.49
2018-11-20T22:29:54.493Z,78.35
2018-11-20T22:32:53.194Z,78.19
2018-11-20T22:35:46.056Z,78.26
2018-11-20T22:38:35.721Z,78.70
2018-11-20T22:41:33.149Z,78.86
2018-11-20T22:44:19.928Z,78.69
2018-11-20T22:47:07.960Z,78.82
2018-11-20T22:49:54.885Z,78.56
2018-11-20T22:52:42.946Z,78.80
2018-11-20T22:55:36.687Z,78.89
2018-11-20T22:58:30.540Z,78.25
2018-11-20T23:01:17.275Z,78.26
2018-11-20T23:04:08.371Z,78.13
2018-11-20T23:07:02.571Z,78.51
2018-11-20T23:09:31.489Z,78.11
2018-11-20T23:12:00.452Z,78.14
2018-11-20T23:14:29.772Z,78.08
2018-11-20T23:16:58.717Z,78.01
2018-11-20T23:19:27.689Z,77.84
2018-11-20T23:21:56.626Z,77.76
2018-11-20T23:24:25.553Z,78.41
2018-11-20T23:26:57.611Z,78.41
2018-11-20T23:29:26.895Z,78.22
2018-11-20T23:31:55.742Z,78.49
2018-11-20T23:34:24.684Z,78.48
2018-11-20T23:36:53.596Z,78.50
2018-11-20T23:39:22.522Z,78.79
2018-11-20T23:41:51.476Z,78.59
2018-11-20T23:44:20.411Z,78.48
2018-11-20T23:46:49.342Z,78.59
2018-11-20T23:49:18.327Z,78.96
2018-11-20T23:51:47.269Z,78.90
2018-11-20T23:54:16.193Z,78.85
2018-11-20T23:56:45.126Z,79.54
2018-11-20T23:59:14.112Z,78.81
